Latest Weather Observations for Roxby Downs

IDS60801

Issued at 7:01 am CST Tuesday 26 July 2016 (issued every 30 minutes, with the page automatically refreshed every 10 minutes)

About weather observations | Map of weather stations | Latest weather observations for SA | Other Formats
Station Details ID: 016096 Name: OLYMPIC DAM AERODROME Lat: -30.48 Lon: 136.88 Height: 98.5 m
Data from the previous 72 hours. | See also: Recent months at Roxby Downs
Date/Time
CST
Temp
°C
App
Temp
°C
Dew
Point
°C
Rel
Hum
%
Delta-T
°C
Wind Press
QNH
hPa
Press
MSL
hPa
Rain since
9am
mm
Dir  Spd
km/h
Gust
km/h
Spd
kts
Gust
kts
26/07:00am 5.1 1.7 4.1 93 0.4 W 11 13 6 7 1021.0 1021.1 0.0
26/06:30am 4.4 1.2 2.9 90 0.6 WNW 9 11 5 6 1020.9 1021.0 0.0
26/06:00am 5.1 2.0 3.6 90 0.6 WNW 9 11 5 6 1020.6 1020.7 0.0
26/05:30am 5.9 2.2 4.2 89 0.7 WNW 13 13 7 7 1020.3 1020.4 0.0
26/05:00am 5.2 1.7 3.4 88 0.8 W 11 13 6 7 1020.2 1020.3 0.0
26/04:30am 5.5 2.0 3.7 88 0.8 W 11 13 6 7 1020.1 1020.2 0.0
26/04:00am 4.7 1.4 2.6 86 0.9 W 9 11 5 6 1020.2 1020.3 0.0
26/03:30am 5.8 2.3 3.5 85 1.0 W 11 11 6 6 1020.2 1020.3 0.0
26/03:00am 6.1 2.7 3.9 86 0.9 WNW 11 13 6 7 1020.5 1020.6 0.0
26/02:30am 6.2 2.8 3.9 85 1.0 WNW 11 11 6 6 1020.7 1020.8 0.0
26/02:00am 6.8 3.5 4.3 84 1.1 W 11 13 6 7 1020.7 1020.8 0.0
26/01:30am 6.4 2.9 3.6 82 1.2 W 11 11 6 6 1020.8 1020.9 0.0
26/01:00am 6.9 3.5 3.9 81 1.3 W 11 11 6 6 1020.8 1020.9 0.0
26/12:30am 7.5 4.2 4.3 80 1.4 W 11 13 6 7 1020.9 1021.0 0.0
26/12:00am 7.2 3.5 4.2 81 1.3 W 13 13 7 7 1021.0 1021.1 0.0
 
Date/Time
CST
Temp
°C
App
Temp
°C
Dew
Point
°C
Rel
Hum
%
Delta-T
°C
Wind Press
QNH
hPa
Press
MSL
hPa
Rain since
9am
mm
Dir  Spd
km/h
Gust
km/h
Spd
kts
Gust
kts
25/11:30pm 7.2 3.8 3.8 79 1.5 WNW 11 13 6 7 1021.0 1021.1 0.0
25/11:00pm 6.8 3.3 3.6 80 1.4 W 11 13 6 7 1021.2 1021.3 0.0
25/10:30pm 7.6 4.3 4.6 81 1.3 W 11 13 6 7 1021.3 1021.4 0.0
25/10:00pm 6.0 2.8 3.0 81 1.3 WNW 9 11 5 6 1021.3 1021.4 0.0
25/09:30pm 6.2 2.9 2.5 77 1.5 WNW 9 11 5 6 1021.2 1021.3 0.0
25/09:00pm 6.8 3.6 3.1 77 1.6 WNW 9 9 5 5 1021.2 1021.3 0.0
25/08:30pm 7.4 4.2 3.1 74 1.8 WNW 9 11 5 6 1021.1 1021.2 0.0
25/08:00pm 8.3 5.6 3.8 73 2.0 W 7 9 4 5 1021.2 1021.3 0.0
25/07:30pm 9.3 6.6 3.9 69 2.4 WSW 7 9 4 5 1021.1 1021.2 0.0
25/07:00pm 11.3 8.8 4.7 64 3.0 WSW 7 9 4 5 1020.9 1021.0 0.0
25/06:30pm 12.8 10.0 5.2 60 3.5 WSW 9 11 5 6 1020.6 1020.7 0.0
25/06:00pm 14.5 11.4 5.6 55 4.2 W 11 13 6 7 1020.2 1020.3 0.0
25/05:30pm 15.9 11.7 5.5 50 5.0 W 17 24 9 13 1020.0 1020.1 0.0
25/05:00pm 16.5 11.7 5.5 48 5.3 WNW 20 28 11 15 1019.9 1020.0 0.0
25/04:30pm 17.0 12.4 5.6 47 5.5 WNW 19 28 10 15 1019.9 1020.0 0.0
25/04:00pm 17.1 12.3 5.4 46 5.7 W 20 32 11 17 1020.0 1020.1 0.0
25/03:30pm 16.9 12.0 5.2 46 5.6 W 20 33 11 18 1020.0 1020.1 0.0
25/03:00pm 17.1 12.3 5.7 47 5.5 WNW 20 33 11 18 1020.4 1020.5 0.0
25/02:30pm 17.2 12.4 5.8 47 5.5 W 20 33 11 18 1020.7 1020.8 0.0
25/02:00pm 16.5 11.7 5.5 48 5.3 WNW 20 32 11 17 1020.8 1020.9 0.0
25/01:30pm 16.1 10.9 5.7 50 5.0 WNW 22 30 12 16 1021.2 1021.3 0.0
25/01:00pm 16.3 11.7 5.6 49 5.2 WNW 19 26 10 14 1021.6 1021.7 0.0
25/12:30pm 15.3 10.7 5.5 52 4.7 WNW 19 28 10 15 1022.1 1022.2 0.0
25/12:00pm 14.9 11.1 6.0 55 4.3 WNW 15 20 8 11 1022.5 1022.6 0.0
25/11:30am 14.4 10.0 6.5 59 3.8 W 19 24 10 13 1023.2 1023.3 0.0
25/11:00am 13.7 9.7 6.8 63 3.4 WNW 17 22 9 12 1023.6 1023.7 0.0
25/10:30am 12.8 9.2 6.8 67 2.9 W 15 20 8 11 1023.8 1023.9 0.0
25/10:00am 12.2 8.6 6.7 69 2.6 W 15 20 8 11 1023.9 1024.0 0.0
25/09:30am 10.7 7.0 6.1 73 2.1 W 15 20 8 11 1023.7 1023.8 0.0
25/09:00am 9.0 5.2 5.7 80 1.5 W 15 22 8 12 1023.4 1023.5 0.0
25/08:30am 7.4 3.4 4.9 84 1.1 W 15 19 8 10 1023.0 1023.1 0.0
25/08:00am 5.6 2.6 4.1 90 0.6 WNW 9 13 5 7 1022.8 1022.9 0.0
25/07:30am 4.1 0.9 3.1 93 0.4 WNW 9 13 5 7 1022.6 1022.7 0.0
25/07:00am 4.2 0.6 3.0 92 0.5 W 11 11 6 6 1022.2 1022.3 0.0
25/06:30am 4.8 1.3 3.5 91 0.5 W 11 13 6 7 1021.8 1021.9 0.0
25/06:00am 4.5 1.3 3.2 91 0.5 WNW 9 11 5 6 1021.5 1021.6 0.0
25/05:30am 4.5 1.3 2.8 89 0.7 W 9 11 5 6 1021.1 1021.2 0.0
25/05:00am 5.1 1.5 3.1 87 0.8 W 11 13 6 7 1020.8 1020.9 0.0
25/04:30am 5.4 2.2 3.3 86 0.9 WSW 9 11 5 6 1020.6 1020.7 0.0
25/04:00am 5.7 2.5 3.0 83 1.1 W 9 13 5 7 1020.7 1020.8 0.0
25/03:30am 6.6 3.1 3.4 80 1.3 W 11 17 6 9 1020.6 1020.7 0.0
25/03:00am 7.0 3.1 3.4 78 1.5 W 13 19 7 10 1020.7 1020.8 0.0
25/02:30am 6.8 2.9 3.2 78 1.5 W 13 17 7 9 1020.8 1020.9 0.0
25/02:00am 6.8 3.2 3.1 77 1.6 W 11 15 6 8 1021.0 1021.1 0.0
25/01:30am 6.8 2.8 2.9 76 1.6 W 13 15 7 8 1021.3 1021.4 0.0
25/01:00am 5.8 2.0 1.9 76 1.6 W 11 13 6 7 1021.5 1021.6 0.0
25/12:30am 5.3 1.5 1.6 77 1.5 WSW 11 13 6 7 1021.6 1021.7 0.0
25/12:00am 5.2 1.3 1.1 75 1.6 W 11 11 6 6 1021.7 1021.8 0.0
 
Date/Time
CST
Temp
°C
App
Temp
°C
Dew
Point
°C
Rel
Hum
%
Delta-T
°C
Wind Press
QNH
hPa
Press
MSL
hPa
Rain since
9am
mm
Dir  Spd
km/h
Gust
km/h
Spd
kts
Gust
kts
24/11:30pm 5.2 1.3 1.0 74 1.6 W 11 13 6 7 1021.7 1021.8 0.0
24/11:00pm 6.0 2.4 0.6 68 2.1 W 9 11 5 6 1021.6 1021.7 0.0
24/10:30pm 8.1 4.6 1.3 62 2.8 WSW 9 13 5 7 1021.5 1021.6 0.0
24/10:00pm 8.8 4.6 1.5 60 3.0 WSW 13 15 7 8 1021.3 1021.4 0.0
24/09:30pm 9.3 5.5 1.5 58 3.2 WSW 11 13 6 7 1021.1 1021.2 0.0
24/09:00pm 9.3 5.8 1.2 57 3.3 WSW 9 13 5 7 1020.8 1020.9 0.0
24/08:30pm 10.7 6.8 1.3 52 3.9 WSW 11 15 6 8 1020.5 1020.6 0.0
24/08:00pm 11.6 7.0 1.5 50 4.3 WSW 15 17 8 9 1020.2 1020.3 0.0
24/07:30pm 12.3 7.0 1.6 48 4.6 WSW 19 24 10 13 1019.9 1020.0 0.0
24/07:00pm 12.9 8.0 2.2 48 4.7 SW 17 26 9 14 1019.4 1019.5 0.0
24/06:30pm 13.4 8.2 2.6 48 4.8 SW 19 26 10 14 1018.9 1019.0 0.0
24/06:00pm 14.3 8.5 2.2 44 5.3 WSW 22 35 12 19 1018.3 1018.4 0.0
24/05:30pm 14.4 8.9 1.7 42 5.5 WSW 20 28 11 15 1017.9 1018.0 0.0
24/05:00pm 14.3 6.9 1.6 42 5.5 WSW 30 41 16 22 1017.6 1017.7 0.0
24/04:30pm 15.4 8.6 3.2 44 5.6 WSW 28 41 15 22 1017.3 1017.3 0.0
24/04:00pm 15.1 9.0 3.0 44 5.5 WSW 24 37 13 20 1016.9 1016.9 0.0
24/03:30pm 15.5 9.0 2.7 42 5.8 WSW 26 41 14 22 1016.8 1016.8 0.0
24/03:00pm 15.3 8.8 2.5 42 5.7 WSW 26 41 14 22 1016.6 1016.6 0.0
24/02:40pm 15.7 7.8 2.5 41 5.9 W 33 52 18 28 1016.5 1016.5 0.0
24/02:30pm 15.9 7.6 2.3 40 6.1 WSW 35 52 19 28 1016.5 1016.5 0.0
24/02:28pm 16.5 8.6 2.5 39 6.3 WSW 33 52 18 28 1016.4 1016.4 0.0
24/02:00pm 15.2 8.1 3.7 46 5.3 W 30 43 16 23 1016.4 1016.4 0.0
24/01:30pm 15.2 7.6 3.7 46 5.3 W 33 48 18 26 1016.6 1016.6 0.0
24/01:00pm 15.7 9.0 3.8 45 5.5 WSW 28 41 15 22 1016.7 1016.7 0.0
24/12:30pm 15.3 8.4 4.4 48 5.1 WSW 30 41 16 22 1017.0 1017.0 0.0
24/12:00pm 14.5 7.4 3.3 47 5.1 W 30 44 16 24 1017.4 1017.5 0.0
24/11:35am 14.6 7.7 2.5 44 5.4 WNW 28 46 15 25 1017.5 1017.6 0.0
24/11:30am 14.7 7.8 2.6 44 5.4 W 28 39 15 21 1017.6 1017.7 0.0
24/11:00am 13.8 6.4 2.1 45 5.1 W 30 43 16 23 1017.8 1017.9 0.0
24/10:30am 13.2 5.8 1.8 46 4.9 WNW 30 46 16 25 1017.9 1018.0 0.0
24/10:00am 12.5 5.5 1.8 48 4.6 WNW 28 41 15 22 1017.7 1017.8 0.0
24/09:30am 11.9 5.3 1.8 50 4.3 WNW 26 35 14 19 1017.8 1017.9 0.0
24/09:00am 10.7 4.9 2.3 56 3.6 WNW 22 35 12 19 1017.6 1017.7 0.0
24/08:30am 9.7 4.6 2.8 62 3.0 WNW 19 28 10 15 1017.4 1017.5 0.0
24/08:00am 8.5 4.2 3.4 70 2.2 WNW 15 20 8 11 1017.1 1017.1 0.0
24/07:30am 7.9 4.0 3.4 73 1.9 NW 13 17 7 9 1016.9 1016.9 0.0
24/07:00am 8.1 4.2 3.6 73 1.9 NW 13 17 7 9 1016.4 1016.4 0.0
24/06:30am 9.2 5.0 3.8 69 2.4 WNW 15 17 8 9 1016.2 1016.2 0.0
24/06:00am 9.6 5.1 4.0 68 2.5 WNW 17 22 9 12 1016.2 1016.2 0.0
24/05:30am 8.9 5.1 4.1 72 2.1 NW 13 19 7 10 1015.7 1015.8 0.0
24/05:00am 9.0 5.6 4.0 71 2.2 NW 11 15 6 8 1015.3 1015.4 0.0
24/04:30am 10.0 6.6 4.2 67 2.6 NW 11 15 6 8 1015.4 1015.5 0.0
24/04:00am 10.5 6.7 4.0 64 2.9 WNW 13 17 7 9 1015.8 1015.9 0.0
24/03:30am 10.6 7.2 3.9 63 3.0 NW 11 15 6 8 1015.7 1015.8 0.0
24/03:00am 10.5 7.0 3.5 62 3.1 NW 11 13 6 7 1016.0 1016.0 0.0
24/02:30am 10.4 7.2 3.2 61 3.1 NW 9 11 5 6 1016.0 1016.0 0.0
24/02:00am 9.5 6.8 3.5 66 2.6 NW 7 9 4 5 1016.2 1016.2 0.0
24/01:30am 8.0 4.9 3.5 73 1.9 NW 9 9 5 5 1016.5 1016.5 0.0
24/01:00am 6.8 4.5 2.7 75 1.7 NNW 4 7 2 4 1016.4 1016.4 0.0
24/12:30am 7.9 5.1 3.0 71 2.1 NNW 7 7 4 4 1016.6 1016.6 0.0
24/12:00am 9.1 6.3 3.1 66 2.6 N 7 11 4 6 1016.7 1016.7 0.0
 
Date/Time
CST
Temp
°C
App
Temp
°C
Dew
Point
°C
Rel
Hum
%
Delta-T
°C
Wind Press
QNH
hPa
Press
MSL
hPa
Rain since
9am
mm
Dir  Spd
km/h
Gust
km/h
Spd
kts
Gust
kts
23/11:30pm 10.3 7.5 3.3 62 3.1 NNW 7 9 4 5 1017.1 1017.1 0.0
23/11:00pm 9.5 7.1 4.1 69 2.4 WNW 6 7 3 4 1017.4 1017.5 0.0
23/10:30pm 8.9 6.2 3.7 70 2.3 WNW 7 9 4 5 1017.5 1017.6 0.0
23/10:00pm 8.8 6.0 3.2 68 2.4 WNW 7 9 4 5 1017.6 1017.7 0.0
23/09:30pm 9.2 6.7 3.6 68 2.4 WNW 6 7 3 4 1017.5 1017.6 0.0
23/09:00pm 10.6 7.8 3.2 60 3.2 NW 7 9 4 5 1017.5 1017.6 0.0
23/08:30pm 11.3 8.1 3.3 58 3.5 WNW 9 11 5 6 1017.9 1018.0 0.0
23/08:00pm 10.9 8.4 3.9 62 3.1 NW 6 7 3 4 1017.3 1017.3 0.0
23/07:30pm 11.7 9.1 4.0 59 3.5 W 7 9 4 5 1017.5 1017.6 0.0
23/07:00pm 12.6 9.5 3.6 54 4.0 WNW 9 9 5 5 1017.1 1017.1 0.0
23/06:30pm 12.5 9.8 3.5 54 4.0 WNW 7 9 4 5 1017.5 1017.6 0.0
23/06:00pm 13.6 10.5 3.4 50 4.6 W 9 13 5 7 1017.5 1017.6 0.0
23/05:30pm 14.2 11.1 3.7 49 4.8 WSW 9 15 5 8 1017.4 1017.5 0.0
23/05:00pm 14.4 11.3 3.5 48 5.0 WSW 9 15 5 8 1016.8 1016.8 0.0
23/04:30pm 14.7 11.6 3.8 48 5.0 W 9 13 5 7 1017.0 1017.0 0.0
23/04:00pm 15.0 11.1 3.5 46 5.3 W 13 19 7 10 1017.0 1017.0 0.0
23/03:30pm 15.3 11.3 3.1 44 5.5 W 13 20 7 11 1017.2 1017.2 0.0
23/03:00pm 15.8 12.6 3.3 43 5.7 WSW 9 19 5 10 1017.4 1017.5 0.0
23/02:30pm 15.8 11.6 3.6 44 5.6 W 15 20 8 11 1017.5 1017.6 0.0
23/02:00pm 15.4 11.3 4.5 48 5.1 SW 15 20 8 11 1017.7 1017.8 0.0
23/01:30pm 14.9 10.3 3.7 47 5.1 SW 17 28 9 15 1018.1 1018.2 0.0
23/01:00pm 14.8 9.9 4.2 49 4.9 SW 19 26 10 14 1018.2 1018.3 0.0
23/12:30pm 14.5 10.5 4.8 52 4.5 WSW 15 24 8 13 1018.6 1018.7 0.0
23/12:00pm 14.8 10.0 4.5 50 4.8 SW 19 28 10 15 1018.7 1018.8 0.0
23/11:30am 13.6 8.9 5.0 56 4.0 SW 19 28 10 15 1019.7 1019.8 0.0
23/11:00am 13.2 9.0 5.9 61 3.5 WSW 17 24 9 13 1019.4 1019.5 0.0
23/10:30am 12.5 7.9 5.7 63 3.2 W 19 26 10 14 1019.5 1019.6 0.0
23/10:00am 11.7 6.6 5.8 67 2.8 W 22 32 12 17 1019.8 1019.9 0.0
23/09:30am 11.0 5.8 5.7 70 2.5 W 22 32 12 17 1019.3 1019.4 0.0
23/09:00am 10.0 5.1 5.2 72 2.2 W 20 26 11 14 1018.5 1018.6 0.0
23/08:30am 9.1 4.7 4.7 74 2.0 W 17 24 9 13 1018.2 1018.3 0.0
23/08:00am 7.9 3.8 4.5 79 1.5 W 15 20 8 11 1018.1 1018.2 0.0
23/07:30am 6.9 3.2 4.2 83 1.2 WNW 13 15 7 8 1017.8 1017.9 0.0

Other Formats:

Comma delimited format used in spreadsheet applications
http://www.bom.gov.au/fwo/IDS60801/IDS60801.95658.axf

JavaScript Object Notation format (JSON) in row-major order
http://www.bom.gov.au/fwo/IDS60801/IDS60801.95658.json